EGPE/INV METAR and TAF weather

Enter ICAO airport designator
Station Type Date Time Source
EGPE METAR 2019/04/19 22:20 UTC NOAA

EGPE 192220Z AUTO 24004KT 9999 NCD 13/06 Q1029


Station Type Date Time Source
EGPE Decoded METAR 2019/04/19 22:20 UTC NOAA

Inverness / Dalcross, United Kingdom (EGPE) 57-32N 004-03W 0M
Apr 19, 2019 - 06:20 PM EDT / 2019.04.19 2220 UTC
Wind: from the WSW (240 degrees) at 5 MPH (4 KT):0
Visibility: greater than 7 mile(s):0
Temperature: 55 F (13 C)
Dew Point: 42 F (6 C)
Relative Humidity: 62%
Pressure (altimeter): 30.39 in. Hg (1029 hPa)
ob: EGPE 192220Z AUTO 24004KT 9999 NCD 13/06 Q1029
cycle: 22

Station Type Date Time Source
EGPE TAF UTC NOAA

Error!

Example: see airport list